Time;durP1;ratioP1;P1;durP2;ratioP2;P2;SDS_P1;SDS_P2;PMS_P1;PMS_P2;Temp;Humidity;BMP_temperature;BMP_pressure;BME280_temperature;BME280_humidity;BME280_pressure;Samples;Min_cycle;Max_cycle;Signal;HPM_P1;HPM_P2
2022/04/29 00:00:53;;;;;;;;;;;12.50;97.30;;;;;;7341664;19;107735;-85
2022/04/29 00:03:21;;;;;;;;;;;12.40;97.90;;;;;;7341996;19;108690;-85
2022/04/29 00:05:49;;;;;;;;;;;12.40;98.60;;;;;;7341300;19;107164;-85
2022/04/29 00:08:16;;;;;;;;;;;12.40;98.40;;;;;;7344036;19;107857;-85
2022/04/29 00:10:44;;;;;;;;;;;12.30;98.60;;;;;;7341073;19;109237;-85
2022/04/29 00:13:13;;;;;;;;;;;12.30;98.90;;;;;;7341929;19;108394;-85
2022/04/29 00:15:40;;;;;;;;;;;12.30;99.30;;;;;;7340800;19;108386;-85
2022/04/29 00:18:07;;;;;;;;;;;12.20;99.40;;;;;;7343750;19;108821;-85
2022/04/29 00:20:34;;;;;;;;;;;12.10;99.90;;;;;;7346137;19;107563;-86
2022/04/29 00:23:01;;;;;;;;;;;12.00;99.90;;;;;;7340362;19;108297;-86
2022/04/29 00:25:29;;;;;;;;;;;11.80;99.90;;;;;;7343184;19;107414;-85
2022/04/29 00:27:57;;;;;;;;;;;11.70;99.90;;;;;;7342572;19;107849;-85
2022/04/29 00:30:24;;;;;;;;;;;11.70;99.90;;;;;;7342388;19;109053;-85
2022/04/29 00:32:51;;;;;;;;;;;11.70;99.90;;;;;;7341789;19;107161;-85
2022/04/29 00:35:18;;;;;;;;;;;11.70;99.90;;;;;;7342349;19;107202;-85
2022/04/29 00:37:47;;;;;;;;;;;11.60;99.90;;;;;;7341076;19;108398;-85
2022/04/29 00:40:15;;;;;;;;;;;11.60;99.90;;;;;;7349282;19;107299;-86
2022/04/29 00:42:43;;;;;;;;;;;11.70;99.90;;;;;;7338554;19;107966;-85
2022/04/29 00:45:11;;;;;;;;;;;11.60;99.90;;;;;;7340226;19;108725;-85
2022/04/29 00:47:38;;;;;;;;;;;11.60;99.90;;;;;;7341411;19;107208;-86
2022/04/29 00:50:05;;;;;;;;;;;11.50;99.90;;;;;;7341314;19;109238;-85
2022/04/29 00:52:35;;;;;;;;;;;11.40;99.90;;;;;;7343194;19;108160;-85
2022/04/29 00:55:06;;;;;;;;;;;11.40;99.90;;;;;;7341750;19;108128;-85
2022/04/29 00:57:43;;;;;;;;;;;11.40;99.90;;;;;;7342341;19;108519;-86
2022/04/29 01:00:11;;;;;;;;;;;11.40;99.90;;;;;;7339208;19;110221;-86
2022/04/29 01:02:41;;;;;;;;;;;11.30;99.90;;;;;;7343912;19;108539;-86
2022/04/29 01:05:09;;;;;;;;;;;11.30;99.90;;;;;;7341299;19;108615;-86
2022/04/29 01:07:37;;;;;;;;;;;11.30;99.90;;;;;;7341616;19;107313;-86
2022/04/29 01:10:04;;;;;;;;;;;11.30;99.90;;;;;;7342584;19;109153;-86
2022/04/29 01:12:34;;;;;;;;;;;11.20;99.90;;;;;;7348936;19;107323;-86
2022/04/29 01:15:06;;;;;;;;;;;11.20;99.90;;;;;;7348569;19;107609;-86
2022/04/29 01:17:34;;;;;;;;;;;11.20;99.90;;;;;;7345525;19;108950;-85
2022/04/29 01:20:02;;;;;;;;;;;11.30;99.90;;;;;;7347326;19;107622;-85
2022/04/29 01:22:30;;;;;;;;;;;11.20;99.90;;;;;;7348090;19;107366;-85
2022/04/29 01:24:57;;;;;;;;;;;11.20;99.90;;;;;;7353297;19;111911;-85
2022/04/29 01:27:24;;;;;;;;;;;11.10;99.90;;;;;;7346398;19;107342;-86
2022/04/29 01:30:00;;;;;;;;;;;11.10;99.90;;;;;;7348765;19;109431;-85
2022/04/29 01:32:28;;;;;;;;;;;11.10;99.90;;;;;;7348096;19;107384;-85
2022/04/29 01:34:55;;;;;;;;;;;11.10;99.90;;;;;;7348045;19;108682;-85
2022/04/29 01:37:22;;;;;;;;;;;11.00;99.90;;;;;;7344476;19;109175;-86
2022/04/29 01:39:49;;;;;;;;;;;11.00;99.90;;;;;;7346091;19;107771;-85
2022/04/29 01:42:16;;;;;;;;;;;11.00;99.90;;;;;;7347559;19;108474;-85
2022/04/29 01:44:45;;;;;;;;;;;11.00;99.90;;;;;;7346414;19;108826;-85
2022/04/29 01:47:12;;;;;;;;;;;10.90;99.90;;;;;;7352650;19;107166;-85
2022/04/29 01:49:40;;;;;;;;;;;10.90;99.90;;;;;;7346758;19;108148;-85
2022/04/29 01:52:10;;;;;;;;;;;10.90;99.90;;;;;;7346261;19;107443;-85
2022/04/29 01:54:37;;;;;;;;;;;10.90;99.90;;;;;;7348127;19;107396;-85
2022/04/29 01:57:05;;;;;;;;;;;10.90;99.90;;;;;;7346222;19;108735;-86
2022/04/29 01:59:32;;;;;;;;;;;10.90;99.90;;;;;;7345895;19;107304;-85
2022/04/29 02:02:00;;;;;;;;;;;10.80;99.90;;;;;;7345241;19;110454;-85
2022/04/29 02:04:27;;;;;;;;;;;10.80;99.90;;;;;;7343065;19;108920;-85
2022/04/29 02:06:54;;;;;;;;;;;10.80;99.90;;;;;;7345116;19;107971;-85
2022/04/29 02:09:21;;;;;;;;;;;10.80;99.90;;;;;;7352374;19;108335;-86
2022/04/29 02:12:06;;;;;;;;;;;10.70;99.90;;;;;;7345645;19;109685;-86
2022/04/29 02:14:38;;;;;;;;;;;10.80;99.90;;;;;;7345156;19;107482;-85
2022/04/29 02:17:06;;;;;;;;;;;10.90;99.90;;;;;;7347464;19;109041;-85
2022/04/29 02:19:33;;;;;;;;;;;10.90;99.90;;;;;;7344370;19;108322;-85
2022/04/29 02:22:01;;;;;;;;;;;10.90;99.90;;;;;;7346988;19;109025;-86
2022/04/29 02:24:28;;;;;;;;;;;10.80;99.90;;;;;;7345940;19;108558;-86
2022/04/29 02:26:57;;;;;;;;;;;10.70;99.90;;;;;;7345851;19;107762;-87
2022/04/29 02:29:25;;;;;;;;;;;10.60;99.90;;;;;;7345563;19;108482;-86
2022/04/29 02:31:52;;;;;;;;;;;10.50;99.90;;;;;;7350657;19;108683;-86
2022/04/29 02:34:19;;;;;;;;;;;10.50;99.90;;;;;;7344792;19;107686;-86
2022/04/29 02:36:47;;;;;;;;;;;10.50;99.90;;;;;;7346810;19;108964;-86
2022/04/29 02:39:14;;;;;;;;;;;10.60;99.90;;;;;;7345903;19;107243;-85
2022/04/29 02:41:41;;;;;;;;;;;10.60;99.90;;;;;;7346056;19;107548;-85
2022/04/29 02:44:07;;;;;;;;;;;10.50;99.90;;;;;;7341873;19;112127;-85
2022/04/29 02:46:35;;;;;;;;;;;10.50;99.90;;;;;;7346100;19;107568;-86
2022/04/29 02:49:01;;;;;;;;;;;10.50;99.90;;;;;;7344712;19;107587;-86
2022/04/29 02:51:28;;;;;;;;;;;10.50;99.90;;;;;;7351793;19;109289;-85
2022/04/29 02:53:55;;;;;;;;;;;10.40;99.90;;;;;;7344719;19;107741;-85
2022/04/29 02:56:22;;;;;;;;;;;10.40;99.90;;;;;;7343770;19;108485;-85
2022/04/29 02:58:49;;;;;;;;;;;10.40;99.90;;;;;;7344125;19;107192;-86
2022/04/29 03:01:16;;;;;;;;;;;10.40;99.90;;;;;;7343408;19;108720;-85
2022/04/29 03:03:43;;;;;;;;;;;10.40;99.90;;;;;;7344599;19;108715;-85
2022/04/29 03:06:10;;;;;;;;;;;10.30;99.90;;;;;;7343136;19;107587;-85
2022/04/29 03:08:37;;;;;;;;;;;10.40;99.90;;;;;;7345102;19;107875;-86
2022/04/29 03:11:04;;;;;;;;;;;10.30;99.90;;;;;;7341806;19;108830;-85
2022/04/29 03:13:31;;;;;;;;;;;10.30;99.90;;;;;;7348721;19;107245;-86
2022/04/29 03:15:58;;;;;;;;;;;10.30;99.90;;;;;;7343627;19;108008;-85
2022/04/29 03:18:26;;;;;;;;;;;10.30;99.90;;;;;;7346130;19;107938;-85
2022/04/29 03:20:56;;;;;;;;;;;10.30;99.90;;;;;;7346073;19;109078;-86
2022/04/29 03:23:24;;;;;;;;;;;10.40;99.90;;;;;;7344657;19;110934;-85
2022/04/29 03:25:51;;;;;;;;;;;10.30;99.90;;;;;;7344283;19;107724;-86
2022/04/29 03:28:20;;;;;;;;;;;10.30;99.90;;;;;;7343911;19;107930;-85
2022/04/29 03:30:47;;;;;;;;;;;10.20;99.90;;;;;;7344510;19;109310;-85
2022/04/29 03:33:14;;;;;;;;;;;10.20;99.90;;;;;;7343339;19;107342;-85
2022/04/29 03:35:45;;;;;;;;;;;10.20;99.90;;;;;;7348175;19;107326;-86
2022/04/29 03:38:12;;;;;;;;;;;10.20;99.90;;;;;;7341934;19;108066;-85
2022/04/29 03:40:39;;;;;;;;;;;10.20;99.90;;;;;;7344145;19;107944;-86
2022/04/29 03:43:06;;;;;;;;;;;10.10;99.90;;;;;;7342700;19;108978;-85
2022/04/29 03:45:33;;;;;;;;;;;10.20;99.90;;;;;;7344133;19;107766;-85
2022/04/29 03:48:00;;;;;;;;;;;10.20;99.90;;;;;;7345666;19;110317;-85
2022/04/29 03:50:28;;;;;;;;;;;10.20;99.90;;;;;;7341757;19;108810;-85
2022/04/29 03:52:56;;;;;;;;;;;10.20;99.90;;;;;;7344406;19;107403;-85
2022/04/29 03:55:24;;;;;;;;;;;10.20;99.90;;;;;;7342780;19;107649;-86
2022/04/29 03:57:53;;;;;;;;;;;10.10;99.90;;;;;;7348805;19;108934;-84
2022/04/29 04:00:21;;;;;;;;;;;10.10;99.90;;;;;;7343540;19;108645;-85
2022/04/29 04:02:49;;;;;;;;;;;10.10;99.90;;;;;;7342944;19;109396;-85
2022/04/29 04:05:23;;;;;;;;;;;10.00;99.90;;;;;;7340683;19;107809;-86
2022/04/29 04:07:51;;;;;;;;;;;10.00;99.90;;;;;;7341460;19;110213;-85
2022/04/29 04:10:18;;;;;;;;;;;10.00;99.90;;;;;;7338482;19;112647;-84
2022/04/29 04:12:49;;;;;;;;;;;10.10;99.90;;;;;;7342388;19;107897;-85
2022/04/29 04:15:17;;;;;;;;;;;10.10;99.90;;;;;;7342639;19;107535;-85
2022/04/29 04:17:45;;;;;;;;;;;10.00;99.90;;;;;;7344019;19;112156;-85
2022/04/29 04:20:12;;;;;;;;;;;9.90;99.90;;;;;;7347290;19;108237;-86
2022/04/29 04:22:40;;;;;;;;;;;9.90;99.90;;;;;;7342461;19;108437;-85
2022/04/29 04:25:10;;;;;;;;;;;9.90;99.90;;;;;;7340256;19;107352;-85
2022/04/29 04:27:37;;;;;;;;;;;9.80;99.90;;;;;;7344539;19;107810;-85
2022/04/29 04:30:05;;;;;;;;;;;9.80;99.90;;;;;;7340112;19;108911;-85
2022/04/29 04:32:38;;;;;;;;;;;9.80;99.90;;;;;;7343397;19;107894;-86
2022/04/29 04:35:06;;;;;;;;;;;9.80;99.90;;;;;;7341269;19;111900;-86
2022/04/29 04:37:34;;;;;;;;;;;9.80;99.90;;;;;;7342287;19;111655;-85
2022/04/29 04:40:04;;;;;;;;;;;9.70;99.90;;;;;;7342983;19;107356;-86
2022/04/29 04:42:31;;;;;;;;;;;9.70;99.90;;;;;;7346366;19;108997;-86
2022/04/29 04:44:58;;;;;;;;;;;9.70;99.90;;;;;;7339195;19;108156;-86
2022/04/29 04:47:25;;;;;;;;;;;9.70;99.90;;;;;;7341038;19;108958;-86
2022/04/29 04:49:52;;;;;;;;;;;9.60;99.90;;;;;;7342592;19;109941;-85
2022/04/29 04:52:19;;;;;;;;;;;9.60;99.90;;;;;;7343399;19;107355;-86
2022/04/29 04:54:46;;;;;;;;;;;9.60;99.90;;;;;;7341698;19;107626;-85
2022/04/29 04:57:13;;;;;;;;;;;9.50;99.90;;;;;;7340028;19;108854;-86
2022/04/29 04:59:40;;;;;;;;;;;9.50;99.90;;;;;;7342520;19;107214;-85
2022/04/29 05:02:07;;;;;;;;;;;9.50;99.90;;;;;;7346783;19;108244;-86
2022/04/29 05:04:34;;;;;;;;;;;9.50;99.90;;;;;;7340646;19;108200;-85
2022/04/29 05:07:03;;;;;;;;;;;9.50;99.90;;;;;;7341489;19;108541;-85
2022/04/29 05:09:30;;;;;;;;;;;9.50;99.90;;;;;;7339381;19;109301;-85
2022/04/29 05:11:57;;;;;;;;;;;9.50;99.90;;;;;;7339956;19;107784;-86
2022/04/29 05:14:34;;;;;;;;;;;9.50;99.90;;;;;;7341159;19;109936;-86
2022/04/29 05:17:02;;;;;;;;;;;9.50;99.90;;;;;;7344351;19;107951;-92
2022/04/29 05:19:29;;;;;;;;;;;9.50;99.90;;;;;;7345170;19;107055;-89
2022/04/29 05:21:56;;;;;;;;;;;9.50;99.90;;;;;;7345470;19;107603;-90
2022/04/29 05:24:23;;;;;;;;;;;9.50;99.90;;;;;;7347420;19;107679;-89
2022/04/29 05:26:53;;;;;;;;;;;9.60;99.90;;;;;;7345868;19;108269;-90
2022/04/29 05:29:20;;;;;;;;;;;9.60;99.90;;;;;;7344217;19;108939;-89
2022/04/29 05:31:57;;;;;;;;;;;9.70;99.90;;;;;;7346033;19;107664;-90
2022/04/29 05:34:24;;;;;;;;;;;9.70;99.90;;;;;;7344847;19;106917;-89
2022/04/29 05:36:51;;;;;;;;;;;9.70;99.90;;;;;;7342292;19;111069;-88
2022/04/29 05:42:18;;;;;;;;;;;9.60;99.90;;;;;;7344203;19;107639;-89
2022/04/29 05:44:46;;;;;;;;;;;9.70;99.90;;;;;;7338434;19;110672;-87
2022/04/29 05:47:12;;;;;;;;;;;9.60;99.90;;;;;;7346898;19;108291;-88
2022/04/29 05:49:40;;;;;;;;;;;9.70;99.90;;;;;;7339270;19;109070;-87
2022/04/29 05:52:08;;;;;;;;;;;9.60;99.90;;;;;;7341970;19;108104;-90
2022/04/29 05:54:35;;;;;;;;;;;9.70;99.90;;;;;;7339362;19;108659;-89
2022/04/29 05:57:09;;;;;;;;;;;9.70;99.90;;;;;;7345487;19;109024;-89
2022/04/29 05:59:36;;;;;;;;;;;9.80;99.90;;;;;;7349069;19;107208;-90
2022/04/29 06:02:03;;;;;;;;;;;9.80;99.90;;;;;;7352651;19;108469;-89
2022/04/29 06:04:31;;;;;;;;;;;9.90;99.90;;;;;;7347870;19;107846;-90
2022/04/29 06:06:58;;;;;;;;;;;9.90;99.90;;;;;;7351563;19;108126;-88
2022/04/29 06:09:25;;;;;;;;;;;10.00;99.90;;;;;;7354514;19;107696;-90
2022/04/29 06:12:00;;;;;;;;;;;10.10;99.90;;;;;;7351380;19;107140;-89
2022/04/29 06:14:27;;;;;;;;;;;10.10;99.90;;;;;;7349453;19;107942;-88
2022/04/29 06:16:54;;;;;;;;;;;10.10;99.90;;;;;;7349643;19;108345;-89
2022/04/29 06:19:22;;;;;;;;;;;10.10;99.90;;;;;;7349186;19;107613;-90
2022/04/29 06:21:49;;;;;;;;;;;10.10;99.90;;;;;;7352233;19;108227;-90
2022/04/29 06:24:16;;;;;;;;;;;10.10;99.90;;;;;;7350522;19;108220;-90
2022/04/29 06:26:43;;;;;;;;;;;10.20;99.90;;;;;;7351269;19;107023;-89
2022/04/29 06:29:10;;;;;;;;;;;10.20;99.90;;;;;;7351181;19;108697;-91
2022/04/29 06:31:37;;;;;;;;;;;10.10;99.90;;;;;;7357972;19;108292;-92
2022/04/29 06:34:04;;;;;;;;;;;10.10;99.90;;;;;;7352720;19;111256;-90
2022/04/29 06:36:31;;;;;;;;;;;10.20;99.90;;;;;;7349942;19;112263;-95
2022/04/29 06:38:58;;;;;;;;;;;10.10;99.90;;;;;;7350355;19;107127;-89
2022/04/29 06:41:25;;;;;;;;;;;10.20;99.90;;;;;;7352142;19;108084;-89
2022/04/29 06:43:53;;;;;;;;;;;10.20;99.90;;;;;;7349511;19;111597;-90
2022/04/29 06:46:24;;;;;;;;;;;10.30;99.90;;;;;;7351055;19;107487;-90
2022/04/29 06:48:54;;;;;;;;;;;10.50;99.90;;;;;;7350121;19;107910;-91
2022/04/29 06:51:21;;;;;;;;;;;10.50;99.90;;;;;;7351232;19;107939;-91
2022/04/29 06:53:48;;;;;;;;;;;10.60;99.90;;;;;;7357780;19;106781;-89
2022/04/29 06:56:16;;;;;;;;;;;10.60;99.90;;;;;;7351077;19;108812;-91
2022/04/29 06:58:43;;;;;;;;;;;10.60;99.90;;;;;;7350446;19;107391;-90
2022/04/29 07:01:17;;;;;;;;;;;10.80;99.90;;;;;;7350671;19;108492;-90
2022/04/29 07:03:44;;;;;;;;;;;10.90;99.90;;;;;;7349906;19;106930;-89
2022/04/29 07:06:11;;;;;;;;;;;11.00;99.90;;;;;;7348335;19;107933;-89
2022/04/29 07:08:38;;;;;;;;;;;11.10;99.90;;;;;;7348948;19;110525;-89
2022/04/29 07:11:05;;;;;;;;;;;11.20;99.90;;;;;;7349975;19;108043;-90
2022/04/29 07:13:32;;;;;;;;;;;11.30;99.90;;;;;;7355296;19;107597;-88
2022/04/29 07:15:59;;;;;;;;;;;11.40;99.90;;;;;;7348517;19;109435;-86
2022/04/29 07:18:26;;;;;;;;;;;11.50;99.90;;;;;;7347383;19;108611;-85
2022/04/29 07:20:53;;;;;;;;;;;11.60;99.90;;;;;;7348994;19;110366;-88
2022/04/29 07:23:20;;;;;;;;;;;11.50;99.90;;;;;;7348712;19;110147;-87
2022/04/29 07:25:49;;;;;;;;;;;11.40;99.90;;;;;;7343805;19;107499;-88
2022/04/29 07:28:17;;;;;;;;;;;11.40;99.90;;;;;;7345298;19;108225;-88
2022/04/29 07:30:44;;;;;;;;;;;11.50;99.90;;;;;;7345230;19;108985;-89
2022/04/29 07:33:11;;;;;;;;;;;11.50;99.90;;;;;;7347077;19;107251;-90
2022/04/29 07:43:55;;;;;;;;;;;11.70;99.90;;;;;;7348791;19;108956;-87
2022/04/29 07:46:23;;;;;;;;;;;11.80;99.90;;;;;;7346523;19;108425;-88
2022/04/29 07:48:50;;;;;;;;;;;11.80;99.90;;;;;;7347988;19;107869;-87
2022/04/29 07:51:17;;;;;;;;;;;11.90;99.90;;;;;;7342662;19;109122;-88
2022/04/29 07:53:44;;;;;;;;;;;12.00;99.90;;;;;;7346945;19;108550;-87
2022/04/29 07:56:11;;;;;;;;;;;12.00;99.90;;;;;;7347385;19;108044;-89
2022/04/29 07:58:38;;;;;;;;;;;12.10;99.90;;;;;;7352157;19;109176;-88
2022/04/29 08:01:06;;;;;;;;;;;12.10;99.90;;;;;;7345231;19;107893;-86
2022/04/29 08:03:35;;;;;;;;;;;12.20;99.90;;;;;;7344131;19;108942;-86
2022/04/29 08:06:04;;;;;;;;;;;12.20;99.90;;;;;;7350224;19;109164;-88
2022/04/29 08:08:31;;;;;;;;;;;12.30;99.90;;;;;;7355762;19;108853;-92
2022/04/29 08:10:58;;;;;;;;;;;12.50;99.90;;;;;;7354541;19;107966;-93
2022/04/29 08:13:25;;;;;;;;;;;12.60;99.90;;;;;;7347121;19;107110;-90
2022/04/29 08:15:52;;;;;;;;;;;12.60;99.90;;;;;;7349883;19;107917;-90
2022/04/29 08:18:20;;;;;;;;;;;12.60;99.90;;;;;;7342266;19;107949;-89
2022/04/29 08:20:47;;;;;;;;;;;12.70;99.90;;;;;;7349129;19;107162;-90
2022/04/29 08:23:15;;;;;;;;;;;12.80;99.90;;;;;;7340303;19;108577;-90
2022/04/29 08:25:41;;;;;;;;;;;12.90;99.90;;;;;;7340345;19;107692;-92
2022/04/29 08:28:11;;;;;;;;;;;12.80;99.90;;;;;;7343057;19;107958;-90
2022/04/29 08:30:38;;;;;;;;;;;12.80;99.90;;;;;;7341849;19;111062;-91
2022/04/29 08:33:06;;;;;;;;;;;12.90;99.90;;;;;;7345670;19;107361;-90
2022/04/29 08:35:33;;;;;;;;;;;13.00;99.90;;;;;;7342905;19;109533;-90
2022/04/29 08:38:00;;;;;;;;;;;13.10;99.90;;;;;;7344564;19;109212;-89
2022/04/29 08:40:27;;;;;;;;;;;13.20;99.90;;;;;;7344915;19;107124;-89
2022/04/29 08:42:57;;;;;;;;;;;13.20;99.90;;;;;;7349244;19;107394;-89
2022/04/29 08:45:24;;;;;;;;;;;13.10;99.90;;;;;;7341568;19;108230;-90
2022/04/29 08:47:52;;;;;;;;;;;13.20;99.90;;;;;;7341824;19;110694;-91
2022/04/29 08:50:20;;;;;;;;;;;13.30;99.90;;;;;;7343193;19;108967;-91
2022/04/29 08:52:48;;;;;;;;;;;13.30;99.90;;;;;;7341755;19;107173;-93
2022/04/29 09:00:47;;;;;;;;;;;13.30;99.90;;;;;;7344099;19;109185;-92
2022/04/29 09:03:15;;;;;;;;;;;13.20;99.90;;;;;;7348347;19;111821;-92
2022/04/29 09:05:43;;;;;;;;;;;13.20;99.90;;;;;;7342224;19;107323;-92
2022/04/29 09:08:14;;;;;;;;;;;13.20;99.90;;;;;;7344263;19;107277;-91
2022/04/29 09:10:51;;;;;;;;;;;13.20;99.90;;;;;;7342747;19;111017;-91
2022/04/29 09:13:26;;;;;;;;;;;13.30;99.90;;;;;;7343883;19;107335;-92
2022/04/29 09:15:58;;;;;;;;;;;13.30;99.90;;;;;;7342175;19;107752;-92
2022/04/29 09:18:33;;;;;;;;;;;13.30;99.90;;;;;;7343282;19;108972;-93
2022/04/29 09:21:19;;;;;;;;;;;13.40;99.90;;;;;;7341963;19;107405;-94
2022/04/29 09:23:53;;;;;;;;;;;13.40;99.90;;;;;;7342928;19;107615;-92
2022/04/29 09:26:21;;;;;;;;;;;13.40;99.90;;;;;;7346323;19;108031;-93
2022/04/29 09:28:49;;;;;;;;;;;13.50;99.90;;;;;;7341694;19;107446;-93
2022/04/29 09:31:16;;;;;;;;;;;13.40;99.90;;;;;;7340845;19;109431;-91
2022/04/29 09:33:57;;;;;;;;;;;13.40;99.90;;;;;;7348065;19;107337;-89
2022/04/29 09:36:24;;;;;;;;;;;13.50;99.90;;;;;;7347623;19;108339;-92
2022/04/29 09:41:38;;;;;;;;;;;13.00;99.90;;;;;;7350518;19;107205;-92
2022/04/29 09:44:05;;;;;;;;;;;13.00;99.90;;;;;;7347518;19;107735;-91
2022/04/29 09:46:36;;;;;;;;;;;13.00;99.90;;;;;;7347035;19;112162;-91
2022/04/29 09:49:06;;;;;;;;;;;13.00;99.90;;;;;;7359007;19;107229;-92
2022/04/29 09:51:39;;;;;;;;;;;13.20;99.90;;;;;;7354562;19;109329;-92
2022/04/29 09:54:23;;;;;;;;;;;13.20;99.90;;;;;;7354693;19;107280;-90
2022/04/29 09:57:09;;;;;;;;;;;13.10;99.90;;;;;;7351606;19;108092;-90
2022/04/29 09:59:44;;;;;;;;;;;13.20;99.90;;;;;;7349953;19;109836;-91
2022/04/29 10:02:37;;;;;;;;;;;13.20;99.90;;;;;;7349469;19;108868;-91
2022/04/29 10:05:05;;;;;;;;;;;13.10;99.90;;;;;;7350930;19;107237;-90
2022/04/29 10:07:33;;;;;;;;;;;13.20;99.90;;;;;;7354052;19;108651;-91
2022/04/29 10:10:02;;;;;;;;;;;13.20;99.90;;;;;;7348740;19;107437;-90
2022/04/29 10:12:30;;;;;;;;;;;13.20;99.90;;;;;;7358148;19;108146;-93
2022/04/29 10:15:05;;;;;;;;;;;13.10;99.90;;;;;;7352063;19;107530;-93
2022/04/29 10:23:28;;;;;;;;;;;13.10;99.90;;;;;;7349345;19;107239;-91
2022/04/29 10:25:55;;;;;;;;;;;13.20;99.90;;;;;;7344494;19;111113;-91
2022/04/29 10:28:23;;;;;;;;;;;13.20;99.90;;;;;;7347675;19;109142;-92
2022/04/29 10:31:00;;;;;;;;;;;13.30;99.90;;;;;;7349939;19;108601;-94
2022/04/29 10:33:27;;;;;;;;;;;13.40;99.90;;;;;;7348575;19;107212;-90
2022/04/29 10:35:56;;;;;;;;;;;13.40;99.90;;;;;;7354494;19;108978;-92
2022/04/29 10:38:31;;;;;;;;;;;13.40;99.90;;;;;;7352522;19;108446;-92
2022/04/29 10:41:07;;;;;;;;;;;13.50;99.90;;;;;;7351362;19;109313;-92
2022/04/29 10:43:38;;;;;;;;;;;13.70;99.90;;;;;;7349529;19;107510;-91
2022/04/29 10:46:04;;;;;;;;;;;13.90;99.90;;;;;;7345992;19;107387;-90
2022/04/29 10:48:32;;;;;;;;;;;14.00;99.90;;;;;;7345944;19;112202;-91
2022/04/29 10:51:09;;;;;;;;;;;14.10;99.70;;;;;;7349500;19;108251;-87
2022/04/29 10:53:41;;;;;;;;;;;14.10;99.90;;;;;;7349883;19;107409;-90
2022/04/29 10:56:26;;;;;;;;;;;14.20;99.80;;;;;;7346956;19;109132;-82
2022/04/29 10:59:09;;;;;;;;;;;14.40;99.70;;;;;;7347562;19;107124;-83
2022/04/29 11:01:37;;;;;;;;;;;14.50;99.40;;;;;;7345859;19;108162;-82
2022/04/29 11:04:05;;;;;;;;;;;14.60;99.00;;;;;;7346438;19;107851;-82
2022/04/29 11:06:40;;;;;;;;;;;14.70;98.70;;;;;;7347246;19;108010;-82
2022/04/29 11:09:27;;;;;;;;;;;14.70;99.30;;;;;;7345521;19;109307;-83
2022/04/29 11:11:54;;;;;;;;;;;14.70;98.80;;;;;;7348803;19;107198;-83
2022/04/29 11:14:21;;;;;;;;;;;14.60;98.60;;;;;;7348301;19;107129;-82
2022/04/29 11:16:53;;;;;;;;;;;14.60;98.90;;;;;;7348437;19;108899;-83
2022/04/29 11:19:21;;;;;;;;;;;14.50;98.90;;;;;;7351763;19;107020;-82
2022/04/29 11:24:53;;;;;;;;;;;14.80;98.90;;;;;;7348198;19;107064;-82
2022/04/29 11:27:30;;;;;;;;;;;14.90;98.60;;;;;;7344041;19;107720;-82
2022/04/29 11:30:01;;;;;;;;;;;15.20;98.60;;;;;;7348087;19;109170;-82
2022/04/29 11:32:29;;;;;;;;;;;15.20;98.20;;;;;;7348259;19;107497;-83
2022/04/29 11:35:05;;;;;;;;;;;15.10;97.70;;;;;;7346373;19;108138;-84
2022/04/29 11:37:35;;;;;;;;;;;15.10;98.10;;;;;;7347464;19;108731;-84
2022/04/29 11:40:04;;;;;;;;;;;15.30;97.70;;;;;;7347519;19;107107;-83
2022/04/29 11:42:31;;;;;;;;;;;15.10;98.00;;;;;;7348128;19;108265;-84
2022/04/29 11:45:03;;;;;;;;;;;15.10;98.10;;;;;;7343713;19;107951;-83
2022/04/29 11:47:32;;;;;;;;;;;15.30;98.30;;;;;;7345058;19;108140;-84
2022/04/29 11:50:01;;;;;;;;;;;15.30;97.80;;;;;;7346751;19;109381;-84
2022/04/29 11:52:31;;;;;;;;;;;15.20;97.70;;;;;;7345439;19;107427;-83
2022/04/29 11:54:58;;;;;;;;;;;15.20;98.20;;;;;;7342698;19;108423;-83
2022/04/29 11:57:26;;;;;;;;;;;15.30;97.80;;;;;;7346258;19;108822;-83
2022/04/29 11:59:54;;;;;;;;;;;15.30;97.70;;;;;;7345879;19;107306;-84
2022/04/29 12:02:25;;;;;;;;;;;15.30;98.00;;;;;;7345741;19;107691;-84
2022/04/29 12:04:56;;;;;;;;;;;15.40;97.80;;;;;;7349238;19;107885;-84
2022/04/29 12:07:24;;;;;;;;;;;15.50;97.70;;;;;;7344803;19;107241;-85
2022/04/29 12:09:52;;;;;;;;;;;15.50;97.40;;;;;;7344771;19;108879;-84
2022/04/29 12:12:25;;;;;;;;;;;15.60;97.30;;;;;;7346494;19;107037;-84
2022/04/29 12:14:53;;;;;;;;;;;15.70;97.00;;;;;;7345881;19;109295;-84
2022/04/29 12:17:38;;;;;;;;;;;15.80;97.20;;;;;;7344556;19;109261;-84
2022/04/29 12:20:06;;;;;;;;;;;16.00;96.90;;;;;;7346675;19;107076;-84
2022/04/29 12:22:36;;;;;;;;;;;16.10;96.80;;;;;;7346732;19;108138;-84
2022/04/29 12:25:18;;;;;;;;;;;16.20;96.40;;;;;;7344681;19;108872;-83
2022/04/29 12:27:45;;;;;;;;;;;16.50;96.30;;;;;;7348673;19;107176;-84
2022/04/29 12:36:13;;;;;;;;;;;17.10;95.50;;;;;;7346544;19;107592;-84
2022/04/29 12:38:41;;;;;;;;;;;17.20;95.90;;;;;;7344906;19;109782;-84
2022/04/29 12:41:15;;;;;;;;;;;17.60;95.10;;;;;;7346000;19;107451;-85
2022/04/29 12:43:42;;;;;;;;;;;17.60;93.80;;;;;;7343985;19;108631;-85
2022/04/29 12:46:13;;;;;;;;;;;17.60;94.60;;;;;;7343658;19;107903;-84
2022/04/29 12:48:47;;;;;;;;;;;17.60;94.50;;;;;;7345866;19;107392;-84
2022/04/29 12:51:24;;;;;;;;;;;17.70;94.60;;;;;;7348426;19;108703;-83
2022/04/29 12:53:51;;;;;;;;;;;17.80;94.40;;;;;;7345610;19;107632;-83
2022/04/29 12:56:22;;;;;;;;;;;17.80;94.80;;;;;;7345610;19;107810;-83
2022/04/29 12:58:50;;;;;;;;;;;17.90;94.90;;;;;;7344552;19;108983;-83
2022/04/29 13:01:17;;;;;;;;;;;18.10;93.50;;;;;;7345398;19;107924;-86
2022/04/29 13:03:51;;;;;;;;;;;17.90;92.40;;;;;;7344943;19;108069;-83
2022/04/29 13:06:20;;;;;;;;;;;17.70;93.80;;;;;;7344634;19;109351;-84
2022/04/29 13:08:50;;;;;;;;;;;17.90;93.90;;;;;;7352117;19;107075;-83
2022/04/29 13:11:17;;;;;;;;;;;17.90;93.50;;;;;;7352219;19;107937;-82
2022/04/29 13:13:44;;;;;;;;;;;17.90;93.30;;;;;;7357339;19;108851;-83
2022/04/29 13:16:11;;;;;;;;;;;18.10;93.90;;;;;;7350961;19;108777;-83
2022/04/29 13:18:39;;;;;;;;;;;18.30;92.60;;;;;;7350134;19;109693;-82
2022/04/29 13:21:09;;;;;;;;;;;18.10;92.20;;;;;;7352219;19;107032;-82
2022/04/29 13:23:36;;;;;;;;;;;17.90;92.10;;;;;;7353136;19;109033;-82
2022/04/29 13:26:04;;;;;;;;;;;17.60;92.50;;;;;;7352210;19;109160;-82
2022/04/29 13:28:34;;;;;;;;;;;17.70;93.30;;;;;;7350161;19;107775;-83
2022/04/29 13:31:02;;;;;;;;;;;17.90;93.20;;;;;;7352112;19;107343;-83
2022/04/29 13:33:29;;;;;;;;;;;18.10;93.20;;;;;;7357834;19;108975;-83
2022/04/29 13:35:57;;;;;;;;;;;18.10;92.30;;;;;;7349685;19;108259;-83
2022/04/29 13:38:24;;;;;;;;;;;18.10;93.60;;;;;;7350150;19;109222;-83
2022/04/29 13:40:51;;;;;;;;;;;18.10;93.40;;;;;;7352496;19;107111;-83
2022/04/29 13:43:20;;;;;;;;;;;18.20;93.10;;;;;;7349752;19;108249;-82
2022/04/29 13:45:47;;;;;;;;;;;18.30;93.60;;;;;;7350807;19;109179;-83
2022/04/29 13:48:15;;;;;;;;;;;18.10;93.20;;;;;;7347233;19;107753;-83
2022/04/29 13:50:42;;;;;;;;;;;18.10;93.10;;;;;;7351145;19;107283;-82
2022/04/29 13:53:11;;;;;;;;;;;18.30;93.30;;;;;;7349968;19;108974;-82
2022/04/29 13:55:45;;;;;;;;;;;18.50;92.70;;;;;;7355182;19;108077;-83
2022/04/29 13:58:13;;;;;;;;;;;18.50;92.30;;;;;;7351229;19;109214;-82
2022/04/29 14:00:43;;;;;;;;;;;18.70;92.50;;;;;;7350229;19;107822;-82
2022/04/29 14:03:11;;;;;;;;;;;18.80;91.90;;;;;;7351156;19;109379;-82
2022/04/29 14:05:38;;;;;;;;;;;18.70;91.70;;;;;;7348553;19;108942;-82
2022/04/29 14:08:06;;;;;;;;;;;18.70;92.50;;;;;;7348732;19;106989;-82
2022/04/29 14:10:33;;;;;;;;;;;18.70;91.60;;;;;;7350836;19;107824;-82
2022/04/29 14:13:00;;;;;;;;;;;18.50;91.30;;;;;;7350351;19;108912;-83
2022/04/29 14:15:27;;;;;;;;;;;18.30;92.20;;;;;;7349609;19;107239;-82
2022/04/29 14:17:54;;;;;;;;;;;18.40;92.20;;;;;;7351455;19;108087;-83
2022/04/29 14:20:21;;;;;;;;;;;18.40;91.40;;;;;;7347289;19;107242;-83
2022/04/29 14:22:48;;;;;;;;;;;18.50;92.00;;;;;;7351294;19;108149;-82
2022/04/29 14:25:16;;;;;;;;;;;18.70;92.30;;;;;;7348373;19;109228;-82
2022/04/29 14:27:44;;;;;;;;;;;18.80;90.90;;;;;;7349035;19;107820;-82
2022/04/29 14:30:12;;;;;;;;;;;18.90;91.40;;;;;;7350072;19;108260;-83
2022/04/29 14:32:40;;;;;;;;;;;18.80;90.60;;;;;;7347915;19;108970;-82
2022/04/29 14:35:08;;;;;;;;;;;18.90;89.20;;;;;;7349795;19;107108;-82
2022/04/29 14:37:35;;;;;;;;;;;19.10;90.70;;;;;;7348765;19;107863;-83
2022/04/29 14:40:03;;;;;;;;;;;19.20;91.10;;;;;;7354308;19;108930;-82
2022/04/29 14:42:30;;;;;;;;;;;19.30;91.30;;;;;;7349275;19;108150;-82
2022/04/29 14:44:57;;;;;;;;;;;19.40;90.00;;;;;;7347429;19;109850;-83
2022/04/29 14:47:24;;;;;;;;;;;19.30;90.20;;;;;;7349845;19;107348;-83
2022/04/29 14:49:51;;;;;;;;;;;19.40;90.10;;;;;;7350995;19;108164;-82